createdAt,value
2018-04-19T00:02:22.601Z,5.90
2018-04-19T00:04:50.135Z,6.13
2018-04-19T00:07:18.420Z,6.10
2018-04-19T00:09:46.720Z,5.87
2018-04-19T00:12:14.240Z,6.13
2018-04-19T00:14:41.767Z,5.43
2018-04-19T00:17:09.324Z,5.67
2018-04-19T00:19:36.862Z,6.30
2018-04-19T00:22:05.143Z,5.80
2018-04-19T00:24:32.681Z,6.07
2018-04-19T00:27:00.956Z,5.37
2018-04-19T00:29:28.492Z,6.03
2018-04-19T00:31:56.013Z,5.93
2018-04-19T00:34:23.608Z,5.20
2018-04-19T00:36:51.157Z,4.40
2018-04-19T00:39:18.668Z,5.67
2018-04-19T00:41:46.972Z,5.10
2018-04-19T00:44:15.250Z,5.40
2018-04-19T00:46:43.547Z,5.70
2018-04-19T00:49:11.067Z,5.33
2018-04-19T00:51:38.599Z,5.87
2018-04-19T00:54:06.114Z,5.30
2018-04-19T00:56:34.419Z,4.93
2018-04-19T00:59:01.934Z,4.90
2018-04-19T01:01:29.469Z,4.80
2018-04-19T01:03:57.006Z,5.30
2018-04-19T01:06:24.570Z,6.80
2018-04-19T01:08:52.132Z,6.83
2018-04-19T01:11:19.693Z,6.87
2018-04-19T01:13:47.204Z,6.77
2018-04-19T01:16:14.829Z,6.07
2018-04-19T01:18:42.344Z,7.33
2018-04-19T01:21:09.885Z,5.77
2018-04-19T01:23:37.400Z,6.50
2018-04-19T01:26:04.916Z,6.37
2018-04-19T01:28:33.955Z,5.83
2018-04-19T01:31:01.528Z,5.57
2018-04-19T01:33:29.073Z,6.47
2018-04-19T01:36:08.460Z,7.13
2018-04-19T01:38:35.988Z,5.87
2018-04-19T01:41:03.505Z,5.90
2018-04-19T01:43:31.032Z,5.67
2018-04-19T01:45:58.540Z,5.80
2018-04-19T01:48:26.836Z,6.07
2018-04-19T01:50:55.113Z,6.87
2018-04-19T01:53:23.408Z,6.03
2018-04-19T01:55:50.975Z,6.40
2018-04-19T01:58:18.512Z,5.63
2018-04-19T02:00:46.788Z,6.17
2018-04-19T02:03:15.083Z,6.23
2018-04-19T02:05:42.600Z,6.20
2018-04-19T02:08:10.133Z,5.73
2018-04-19T02:13:17.568Z,5.93
2018-04-19T02:15:47.133Z,6.50
2018-04-19T02:18:16.347Z,6.87
2018-04-19T02:20:45.636Z,6.40
2018-04-19T02:23:19.560Z,5.17
2018-04-19T02:25:50.898Z,6.17
2018-04-19T02:28:29.692Z,5.47
2018-04-19T02:30:59.680Z,5.30
2018-04-19T02:33:35.605Z,5.97
2018-04-19T02:36:04.839Z,5.73
2018-04-19T02:38:44.454Z,5.83
2018-04-19T02:41:11.980Z,5.67
2018-04-19T02:43:41.889Z,5.10
2018-04-19T02:46:14.787Z,5.87
2018-04-19T02:48:45.828Z,5.50
2018-04-19T02:51:16.870Z,5.60
2018-04-19T02:53:45.972Z,5.73
2018-04-19T02:56:15.119Z,5.40
2018-04-19T02:58:45.179Z,4.50
2018-04-19T03:03:51.912Z,4.90
2018-04-19T03:06:46.715Z,4.60
2018-04-19T03:09:16.807Z,6.80
2018-04-19T03:11:46.759Z,7.63
2018-04-19T03:14:19.011Z,6.70
2018-04-19T03:16:47.386Z,5.83
2018-04-19T03:19:14.911Z,6.30
2018-04-19T03:21:51.343Z,6.17
2018-04-19T03:24:18.858Z,6.10
2018-04-19T03:26:46.391Z,6.20
2018-04-19T03:29:13.909Z,6.30
2018-04-19T03:31:42.211Z,6.53
2018-04-19T03:34:09.732Z,7.27
2018-04-19T03:36:37.269Z,6.13
2018-04-19T03:39:04.788Z,7.47
2018-04-19T03:41:32.316Z,6.60
2018-04-19T03:44:00.591Z,5.70
2018-04-19T03:46:28.128Z,6.40
2018-04-19T03:48:55.640Z,5.97
2018-04-19T03:51:23.916Z,5.77
2018-04-19T03:53:52.247Z,6.03
2018-04-19T03:56:19.780Z,6.63
2018-04-19T03:58:47.313Z,5.40
2018-04-19T04:01:15.627Z,6.47
2018-04-19T04:03:43.185Z,6.50
2018-04-19T04:06:10.709Z,5.30
2018-04-19T04:08:39.025Z,5.90
2018-04-19T04:11:06.549Z,6.13
2018-04-19T04:13:34.873Z,7.50
2018-04-19T04:16:02.394Z,7.13
2018-04-19T04:18:42.541Z,6.57
2018-04-19T04:21:17.777Z,7.57
2018-04-19T04:23:55.032Z,7.17
2018-04-19T04:26:24.160Z,6.40
2018-04-19T04:28:53.200Z,6.47
2018-04-19T04:31:20.787Z,6.00
2018-04-19T04:33:48.341Z,5.70
2018-04-19T04:36:15.852Z,5.27
2018-04-19T04:38:43.392Z,5.77
2018-04-19T04:41:10.912Z,6.37
2018-04-19T04:43:38.428Z,6.73
2018-04-19T04:46:08.117Z,6.13
2018-04-19T04:48:35.653Z,6.43
2018-04-19T04:51:03.184Z,5.93
2018-04-19T04:53:31.464Z,6.70
2018-04-19T04:55:59.774Z,6.83
2018-04-19T04:58:27.292Z,5.90
2018-04-19T05:00:54.828Z,6.27
2018-04-19T05:03:22.385Z,5.70
2018-04-19T05:05:50.031Z,5.03
2018-04-19T05:08:17.547Z,5.47
2018-04-19T05:10:45.085Z,6.40
2018-04-19T05:13:12.608Z,4.57
2018-04-19T05:15:40.174Z,5.80
2018-04-19T05:18:07.690Z,4.90
2018-04-19T05:20:36.114Z,4.63
2018-04-19T05:23:04.665Z,5.80
2018-04-19T05:25:32.989Z,5.60
2018-04-19T05:28:00.513Z,5.63
2018-04-19T05:30:28.820Z,5.23
2018-04-19T05:32:56.347Z,5.00
2018-04-19T05:35:24.660Z,4.90
2018-04-19T05:37:52.181Z,5.40
2018-04-19T05:40:20.465Z,5.10
2018-04-19T05:42:48.769Z,4.80
2018-04-19T05:45:16.289Z,4.90
2018-04-19T05:47:43.907Z,5.30
2018-04-19T05:50:11.468Z,4.70
2018-04-19T05:52:39.004Z,6.93
2018-04-19T05:55:07.308Z,4.97
2018-04-19T05:57:34.849Z,4.40
2018-04-19T06:00:02.369Z,4.30
2018-04-19T06:02:29.902Z,4.40
2018-04-19T06:04:57.416Z,4.23
2018-04-19T06:07:25.761Z,3.97
2018-04-19T06:09:53.296Z,4.10
2018-04-19T06:12:20.855Z,4.80
2018-04-19T06:14:48.372Z,4.80
2018-04-19T06:17:15.909Z,4.80
2018-04-19T06:19:43.425Z,4.37
2018-04-19T06:22:10.966Z,4.40
2018-04-19T06:24:39.261Z,5.00
2018-04-19T06:27:06.840Z,4.80
2018-04-19T06:29:34.355Z,4.30
2018-04-19T06:32:01.879Z,4.20
2018-04-19T06:34:29.426Z,5.00
2018-04-19T06:36:56.989Z,5.10
2018-04-19T06:39:24.533Z,5.73
2018-04-19T06:41:52.111Z,4.80
2018-04-19T06:44:19.643Z,5.83
2018-04-19T06:46:47.927Z,6.10
2018-04-19T06:49:16.329Z,6.20
2018-04-19T06:51:43.844Z,6.00
2018-04-19T06:54:11.380Z,5.17
2018-04-19T06:56:38.897Z,6.40
2018-04-19T06:59:06.432Z,5.53
2018-04-19T07:01:34.717Z,5.07
2018-04-19T07:04:03.134Z,5.60
2018-04-19T07:06:30.720Z,6.60
2018-04-19T07:08:58.193Z,6.03
2018-04-19T07:11:25.816Z,5.63
2018-04-19T07:13:53.332Z,5.83
2018-04-19T07:16:21.640Z,5.00
2018-04-19T07:18:49.161Z,5.87
2018-04-19T07:21:18.200Z,5.27
2018-04-19T07:23:45.721Z,5.57
2018-04-19T07:26:13.344Z,5.50
2018-04-19T07:28:41.635Z,5.60
2018-04-19T07:31:09.173Z,4.73
2018-04-19T07:33:36.692Z,5.70
2018-04-19T07:36:04.231Z,5.70
2018-04-19T07:38:31.744Z,5.00
2018-04-19T07:40:59.260Z,4.80
2018-04-19T07:43:26.797Z,5.03
2018-04-19T07:45:54.312Z,5.03
2018-04-19T07:48:22.612Z,5.00
2018-04-19T07:50:50.131Z,6.13
2018-04-19T07:53:17.664Z,5.13
2018-04-19T07:55:45.182Z,4.90
2018-04-19T07:58:13.476Z,4.80
2018-04-19T08:00:40.999Z,5.57
2018-04-19T08:03:08.534Z,5.90
2018-04-19T08:05:36.075Z,5.03
2018-04-19T08:08:03.613Z,4.97
2018-04-19T08:10:31.132Z,5.70
2018-04-19T08:13:00.175Z,5.47
2018-04-19T08:15:27.690Z,5.70
2018-04-19T08:17:55.304Z,5.83
2018-04-19T08:20:22.836Z,5.83
2018-04-19T08:22:51.120Z,7.40
2018-04-19T08:25:19.429Z,5.37
2018-04-19T08:27:46.956Z,6.13
2018-04-19T08:30:15.261Z,5.20
2018-04-19T08:32:42.820Z,6.77
2018-04-19T08:35:10.402Z,5.97
2018-04-19T08:37:37.930Z,5.73
2018-04-19T08:40:05.473Z,7.00
2018-04-19T08:42:33.761Z,6.60
2018-04-19T08:45:01.301Z,6.40
2018-04-19T08:47:29.580Z,5.33
2018-04-19T08:49:57.900Z,6.57
2018-04-19T08:52:25.413Z,5.90
2018-04-19T08:54:52.951Z,6.40
2018-04-19T08:57:20.472Z,6.83
2018-04-19T08:59:48.022Z,6.43
2018-04-19T09:02:15.549Z,6.33
2018-04-19T09:04:44.601Z,5.53
2018-04-19T09:07:12.145Z,6.03
2018-04-19T09:09:39.720Z,6.03
2018-04-19T09:12:07.253Z,5.20
2018-04-19T09:14:35.532Z,5.77
2018-04-19T09:17:03.840Z,6.43
2018-04-19T09:19:31.367Z,6.80
2018-04-19T09:21:58.916Z,6.20
2018-04-19T09:24:26.435Z,5.90
2018-04-19T09:26:53.968Z,6.30
2018-04-19T09:29:21.549Z,6.73
2018-04-19T09:31:49.084Z,6.60
2018-04-19T09:34:16.624Z,8.03
2018-04-19T09:36:44.928Z,7.23
2018-04-19T09:39:12.451Z,7.00
2018-04-19T09:41:40.011Z,5.70
2018-04-19T09:44:07.532Z,6.77
2018-04-19T09:46:35.084Z,6.00
2018-04-19T09:49:02.611Z,6.10
2018-04-19T09:51:30.895Z,6.50
2018-04-19T09:54:00.199Z,7.13
2018-04-19T09:56:28.193Z,6.17
2018-04-19T09:59:07.742Z,6.53
2018-04-19T10:01:41.004Z,6.80
2018-04-19T10:04:09.313Z,7.20
2018-04-19T10:06:36.836Z,6.50
2018-04-19T10:09:05.152Z,6.40
2018-04-19T10:11:32.711Z,6.17
2018-04-19T10:14:00.243Z,5.57
2018-04-19T10:16:28.557Z,6.60
2018-04-19T10:18:56.101Z,6.00
2018-04-19T10:21:23.645Z,7.33
2018-04-19T10:23:51.965Z,5.50
2018-04-19T10:26:19.517Z,7.70
2018-04-19T10:28:47.058Z,6.17
2018-04-19T10:31:14.640Z,4.30
2018-04-19T10:33:42.173Z,6.47
2018-04-19T10:36:10.460Z,6.60
2018-04-19T10:38:38.044Z,6.13
2018-04-19T10:41:05.565Z,6.03
2018-04-19T10:43:33.869Z,5.60
2018-04-19T10:46:01.449Z,6.10
2018-04-19T10:48:29.004Z,5.70
2018-04-19T10:50:56.529Z,5.23
2018-04-19T10:53:24.811Z,5.13
2018-04-19T10:55:53.113Z,5.20
2018-04-19T10:58:20.633Z,5.30
2018-04-19T11:00:48.172Z,4.20
2018-04-19T11:03:15.689Z,4.90
2018-04-19T11:05:43.225Z,5.60
2018-04-19T11:08:10.747Z,5.30
2018-04-19T11:10:38.396Z,5.10
2018-04-19T11:13:05.912Z,4.80
2018-04-19T11:15:34.220Z,4.87
2018-04-19T11:18:01.744Z,5.50
2018-04-19T11:20:30.053Z,4.67
2018-04-19T11:22:57.581Z,5.50
2018-04-19T11:25:25.200Z,6.30
2018-04-19T11:27:52.763Z,5.40
2018-04-19T11:30:20.280Z,4.37
2018-04-19T11:32:48.586Z,5.47
2018-04-19T11:35:16.164Z,5.20
2018-04-19T11:37:43.700Z,5.87
2018-04-19T11:40:11.985Z,5.90
2018-04-19T11:42:39.523Z,6.40
2018-04-19T11:45:07.804Z,5.27
2018-04-19T11:47:36.115Z,5.23
2018-04-19T11:50:03.633Z,4.80
2018-04-19T11:52:31.174Z,4.53
2018-04-19T11:54:58.693Z,3.90
2018-04-19T11:57:26.233Z,4.83
2018-04-19T11:59:54.517Z,5.20
2018-04-19T12:02:22.925Z,4.67
2018-04-19T12:04:50.495Z,4.13
2018-04-19T12:07:18.033Z,5.20
2018-04-19T12:09:45.551Z,3.93
2018-04-19T12:12:13.087Z,4.53
2018-04-19T12:14:40.604Z,4.43
2018-04-19T12:17:08.917Z,4.10
2018-04-19T12:19:36.441Z,4.50
2018-04-19T12:22:04.729Z,3.63
2018-04-19T12:24:32.275Z,3.97
2018-04-19T12:27:00.564Z,4.00
2018-04-19T12:29:28.108Z,3.57
2018-04-19T12:31:56.392Z,3.57
2018-04-19T12:34:24.696Z,3.13
2018-04-19T12:36:52.216Z,4.23
2018-04-19T12:39:21.372Z,2.60
2018-04-19T12:41:48.891Z,2.60
2018-04-19T12:44:20.540Z,3.03
2018-04-19T12:46:48.062Z,2.90
2018-04-19T12:49:15.607Z,2.80
2018-04-19T12:51:43.124Z,3.33
2018-04-19T12:54:11.428Z,2.57
2018-04-19T12:56:38.949Z,2.77
2018-04-19T12:59:06.488Z,2.70
2018-04-19T13:01:34.041Z,2.47
2018-04-19T13:04:03.874Z,2.40
2018-04-19T13:06:33.913Z,2.10
2018-04-19T13:09:02.112Z,2.70
2018-04-19T13:11:30.396Z,2.40
2018-04-19T13:13:58.701Z,2.83
2018-04-19T13:16:26.220Z,2.20
2018-04-19T13:18:54.968Z,1.90
2018-04-19T13:21:22.484Z,1.87
2018-04-19T13:23:50.765Z,2.33
2018-04-19T13:26:19.065Z,1.83
2018-04-19T13:28:46.576Z,3.00
2018-04-19T13:31:14.196Z,2.40
2018-04-19T13:33:41.718Z,2.40
2018-04-19T13:36:10.036Z,2.00
2018-04-19T13:38:37.556Z,2.60
2018-04-19T13:41:05.858Z,2.20
2018-04-19T13:43:33.376Z,2.33
2018-04-19T13:46:00.917Z,2.83
2018-04-19T13:48:28.431Z,2.73
2018-04-19T13:50:56.731Z,2.70
2018-04-19T13:53:24.253Z,2.00
2018-04-19T13:55:52.552Z,3.07
2018-04-19T13:58:20.078Z,2.20
2018-04-19T14:00:47.628Z,2.97
2018-04-19T14:03:15.162Z,2.90
2018-04-19T14:05:42.685Z,2.83
2018-04-19T14:08:11.038Z,2.67
2018-04-19T14:10:38.524Z,2.20
2018-04-19T14:13:06.824Z,3.10
2018-04-19T14:15:36.181Z,2.47
2018-04-19T14:18:03.716Z,2.10
2018-04-19T14:20:31.227Z,3.27
2018-04-19T14:22:59.531Z,3.20
2018-04-19T14:25:27.052Z,2.87
2018-04-19T14:27:55.361Z,3.53
2018-04-19T14:30:22.879Z,3.50
2018-04-19T14:32:50.420Z,3.07
2018-04-19T14:35:17.948Z,2.60
2018-04-19T14:37:45.483Z,2.53
2018-04-19T14:40:13.768Z,2.70
2018-04-19T14:42:42.067Z,2.30
2018-04-19T14:45:09.583Z,2.07
2018-04-19T14:47:37.885Z,2.20
2018-04-19T14:50:06.160Z,2.40
2018-04-19T14:52:36.521Z,2.83
2018-04-19T14:55:08.135Z,2.80
2018-04-19T14:57:36.456Z,2.70
2018-04-19T15:00:04.026Z,2.63
2018-04-19T15:02:31.553Z,2.03
2018-04-19T15:04:59.862Z,2.50
2018-04-19T15:07:27.384Z,2.30
2018-04-19T15:09:55.684Z,2.30
2018-04-19T15:12:23.208Z,3.00
2018-04-19T15:14:50.745Z,2.10
2018-04-19T15:17:18.285Z,2.60
2018-04-19T15:19:45.823Z,2.20
2018-04-19T15:22:14.104Z,2.40
2018-04-19T15:24:41.642Z,2.67
2018-04-19T15:27:09.933Z,2.97
2018-04-19T15:29:38.243Z,2.10
2018-04-19T15:32:05.804Z,2.63
2018-04-19T15:34:33.349Z,2.47
2018-04-19T15:37:00.864Z,2.43
2018-04-19T15:39:28.399Z,2.00
2018-04-19T15:41:55.916Z,2.37
2018-04-19T15:44:24.221Z,2.63
2018-04-19T15:46:51.789Z,2.97
2018-04-19T15:49:19.324Z,2.83
2018-04-19T15:51:46.847Z,3.10
2018-04-19T15:54:15.133Z,3.27
2018-04-19T15:56:42.755Z,2.63
2018-04-19T15:59:10.276Z,2.90
2018-04-19T16:01:38.591Z,2.73
2018-04-19T16:04:06.107Z,2.60
2018-04-19T16:06:33.644Z,2.50
2018-04-19T16:09:01.167Z,2.67
2018-04-19T16:11:28.704Z,2.77
2018-04-19T16:13:56.987Z,2.90
2018-04-19T16:16:25.284Z,3.03
2018-04-19T16:18:52.804Z,2.50
2018-04-19T16:21:21.121Z,2.80
2018-04-19T16:23:48.637Z,2.43
2018-04-19T16:26:16.937Z,2.53
2018-04-19T16:28:48.624Z,2.30
2018-04-19T16:31:12.833Z,2.27
2018-04-19T16:33:40.352Z,2.87
2018-04-19T16:36:08.633Z,3.17
2018-04-19T16:38:36.239Z,2.90
2018-04-19T16:41:03.766Z,3.10
2018-04-19T16:43:31.335Z,2.93
2018-04-19T16:45:58.859Z,2.53
2018-04-19T16:48:27.160Z,2.50
2018-04-19T16:50:54.737Z,2.40
2018-04-19T16:53:22.299Z,2.37
2018-04-19T16:55:49.838Z,2.83
2018-04-19T16:58:17.376Z,2.83
2018-04-19T17:00:45.662Z,2.50
2018-04-19T17:03:13.979Z,2.80
2018-04-19T17:05:41.496Z,2.70
2018-04-19T17:08:09.033Z,2.50
2018-04-19T17:10:36.551Z,3.17
2018-04-19T17:13:04.097Z,2.70
2018-04-19T17:15:32.380Z,2.13
2018-04-19T17:17:59.900Z,1.83
2018-04-19T17:20:27.432Z,2.77
2018-04-19T17:22:54.948Z,2.53
2018-04-19T17:25:23.245Z,2.40
2018-04-19T17:27:50.759Z,3.30
2018-04-19T17:30:18.293Z,2.33
2018-04-19T17:32:45.813Z,2.50
2018-04-19T17:35:14.112Z,2.37
2018-04-19T17:37:41.685Z,2.30
2018-04-19T17:40:09.221Z,2.27
2018-04-19T17:42:37.505Z,2.30
2018-04-19T17:45:05.093Z,2.00
2018-04-19T17:47:32.609Z,2.43
2018-04-19T17:50:00.909Z,2.27
2018-04-19T17:52:28.434Z,2.60
2018-04-19T17:54:56.050Z,2.50
2018-04-19T17:57:23.565Z,2.50
2018-04-19T17:59:51.101Z,2.50
2018-04-19T18:02:18.621Z,2.43
2018-04-19T18:04:46.196Z,3.07
2018-04-19T18:07:13.736Z,2.47
2018-04-19T18:09:42.020Z,2.60
2018-04-19T18:12:09.557Z,2.20
2018-04-19T18:14:37.840Z,3.00
2018-04-19T18:17:05.381Z,2.70
2018-04-19T18:19:32.894Z,2.50
2018-04-19T18:22:00.440Z,2.23
2018-04-19T18:24:28.720Z,2.40
2018-04-19T18:26:57.025Z,2.33
2018-04-19T18:29:24.594Z,3.93
2018-04-19T18:31:52.130Z,2.77
2018-04-19T18:34:19.645Z,2.70
2018-04-19T18:36:47.292Z,3.67
2018-04-19T18:39:14.805Z,2.53
2018-04-19T18:41:43.112Z,2.60
2018-04-19T18:44:10.628Z,2.80
2018-04-19T18:46:38.933Z,2.67
2018-04-19T18:49:06.449Z,2.50
2018-04-19T18:51:33.981Z,3.20
2018-04-19T18:54:01.506Z,2.60
2018-04-19T18:56:29.092Z,2.50
2018-04-19T18:58:56.609Z,2.50
2018-04-19T19:01:24.892Z,2.50
2018-04-19T19:03:53.193Z,2.70
2018-04-19T19:06:20.716Z,2.93
2018-04-19T19:08:48.256Z,2.83
2018-04-19T19:11:15.788Z,2.30
2018-04-19T19:13:43.320Z,3.10
2018-04-19T19:16:11.605Z,3.23
2018-04-19T19:18:50.926Z,3.53
2018-04-19T19:21:19.229Z,2.90
2018-04-19T19:23:46.764Z,2.90
2018-04-19T19:26:15.050Z,2.60
2018-04-19T19:28:43.349Z,2.87
2018-04-19T19:31:10.865Z,2.80
2018-04-19T19:33:38.396Z,3.00
2018-04-19T19:36:05.912Z,3.70
2018-04-19T19:38:33.448Z,2.60
2018-04-19T19:41:00.968Z,3.20
2018-04-19T19:43:28.501Z,3.00
2018-04-19T19:45:56.076Z,3.90
2018-04-19T19:48:23.593Z,3.60
2018-04-19T19:50:51.127Z,3.23
2018-04-19T19:53:18.670Z,3.27
2018-04-19T19:55:46.210Z,3.00
2018-04-19T19:58:13.737Z,3.00
2018-04-19T20:00:42.040Z,3.70
2018-04-19T20:03:09.556Z,3.60
2018-04-19T20:05:37.092Z,3.20
2018-04-19T20:08:04.637Z,3.20
2018-04-19T20:10:32.176Z,3.20
2018-04-19T20:12:59.701Z,3.00
2018-04-19T20:15:27.236Z,3.33
2018-04-19T20:17:54.747Z,2.73
2018-04-19T20:20:23.053Z,3.50
2018-04-19T20:22:50.569Z,3.03
2018-04-19T20:25:18.104Z,3.10
2018-04-19T20:27:45.616Z,3.20
2018-04-19T20:30:13.153Z,3.47
2018-04-19T20:32:41.437Z,3.53
2018-04-19T20:35:09.740Z,3.53
2018-04-19T20:37:37.257Z,3.27
2018-04-19T20:40:04.789Z,4.67
2018-04-19T20:42:32.306Z,3.63
2018-04-19T20:45:00.714Z,3.70
2018-04-19T20:47:28.237Z,3.47
2018-04-19T20:49:56.555Z,3.40
2018-04-19T20:52:24.067Z,3.10
2018-04-19T20:54:52.350Z,3.60
2018-04-19T20:57:20.649Z,3.57
2018-04-19T20:59:48.220Z,4.00
2018-04-19T21:02:15.760Z,3.33
2018-04-19T21:04:44.040Z,3.73
2018-04-19T21:07:11.575Z,3.27
2018-04-19T21:09:39.089Z,4.17
2018-04-19T21:12:06.640Z,3.33
2018-04-19T21:14:34.155Z,3.00
2018-04-19T21:17:01.704Z,3.37
2018-04-19T21:19:29.224Z,3.10
2018-04-19T21:21:56.813Z,3.43
2018-04-19T21:24:24.312Z,3.70
2018-04-19T21:26:51.853Z,3.30
2018-04-19T21:29:20.189Z,3.60
2018-04-19T21:31:47.744Z,3.60
2018-04-19T21:34:15.265Z,3.07
2018-04-19T21:36:43.577Z,2.97
2018-04-19T21:39:11.096Z,3.33
2018-04-19T21:41:38.612Z,3.20
2018-04-19T21:44:06.147Z,3.60
2018-04-19T21:46:33.671Z,3.50
2018-04-19T21:49:01.289Z,4.23
2018-04-19T21:51:28.848Z,3.57
2018-04-19T21:53:56.390Z,3.60
2018-04-19T21:56:23.904Z,4.03
2018-04-19T21:58:51.442Z,4.17
2018-04-19T22:01:18.965Z,3.73
2018-04-19T22:03:46.502Z,3.50
2018-04-19T22:06:14.108Z,4.10
2018-04-19T22:08:41.672Z,3.37
2018-04-19T22:11:09.195Z,3.37
2018-04-19T22:13:37.501Z,4.37
2018-04-19T22:16:05.021Z,3.50
2018-04-19T22:18:33.329Z,3.50
2018-04-19T22:21:00.843Z,3.97
2018-04-19T22:23:28.472Z,3.50
2018-04-19T22:25:55.984Z,3.50
2018-04-19T22:28:23.542Z,3.60
2018-04-19T22:30:51.057Z,3.10
2018-04-19T22:33:18.608Z,5.13
2018-04-19T22:35:46.139Z,4.20
2018-04-19T22:38:14.420Z,4.77
2018-04-19T22:40:42.724Z,4.63
2018-04-19T22:43:10.248Z,4.03
2018-04-19T22:45:38.573Z,4.37
2018-04-19T22:48:06.084Z,5.00
2018-04-19T22:50:34.391Z,4.03
2018-04-19T22:53:01.909Z,4.73
2018-04-19T22:55:29.464Z,4.60
2018-04-19T22:57:56.976Z,4.20
2018-04-19T23:00:26.491Z,4.83
2018-04-19T23:02:54.004Z,4.50
2018-04-19T23:05:21.549Z,4.00
2018-04-19T23:07:50.573Z,4.60
2018-04-19T23:10:18.853Z,4.70
2018-04-19T23:12:47.164Z,4.20
2018-04-19T23:15:14.684Z,5.10
2018-04-19T23:17:42.988Z,4.67
2018-04-19T23:20:10.505Z,4.83
2018-04-19T23:22:38.809Z,5.07
2018-04-19T23:25:07.187Z,4.83
2018-04-19T23:27:34.693Z,5.07
2018-04-19T23:30:02.212Z,5.37
2018-04-19T23:32:30.513Z,6.93
2018-04-19T23:34:58.075Z,4.73
2018-04-19T23:37:25.611Z,5.90
2018-04-19T23:39:53.893Z,5.33
2018-04-19T23:42:22.295Z,5.40
2018-04-19T23:44:49.853Z,4.50
2018-04-19T23:47:17.387Z,6.17
2018-04-19T23:49:45.673Z,6.27
2018-04-19T23:52:13.213Z,5.97
2018-04-19T23:54:41.530Z,6.50
2018-04-19T23:57:09.044Z,6.87
2018-04-19T23:59:36.585Z,4.97
